Jupiter — 6YSB3 — position and weather

sailwx.info

Track history (hours):
 
Tides and Currents Weather Stations Pressure Air Temp Water Temp Dewpoint Dewpoint Depression Visibility Wind Speed Wind Dir Waves Ship Positions

Jupiter

Last reported at 2018-May-15 19:45 UTC. Time now 2018-May-24 21:21 UTC.
Position N 39°16' W 075°21'.
Warning: this ship's position is 9 days out of date.

Length 30 m.

Type: Sailing vessel. MMSI: 339399000.

Date/timePositionNaut miles runAvg speedWind from/ knotsBaromVisibWave heightAir tempDewpointWater temp
2018-May-15 19:45N 39°16' W 075°21'411.8
2018-May-15 19:26N 39°19' W 075°24'510.3
2018-May-15 19:00N 39°23' W 075°28'511.2
2018-May-15 18:30N 39°27' W 075°33'4 7.9
2018-May-15 18:00N 39°31' W 075°33'3 5.8
2018-May-15 17:29N 39°33' W 075°35'3 6.7
2018-May-15 17:00N 39°33' W 075°39'4 6.8
2018-May-15 16:28N 39°32' W 075°44'52 7.2
2018-May-15 09:19N 38°54' W 076°29'  
2018-May-10 19:53N 38°56' W 076°32'3 7.7
2018-May-10 19:30N 38°54' W 076°29'3 4.2
2018-May-10 18:44N 38°53' W 076°25'1 5.7
2018-May-10 18:30N 38°53' W 076°27'0 0.5
2018-May-10 18:00N 38°53' W 076°27'3 5.2
2018-May-10 17:30N 38°55' W 076°29'3 0.1
2018-May-09 22:11N 38°56' W 076°32'1 7.8
2018-May-09 22:00N 38°56' W 076°31'4 7.4
2018-May-09 21:26N 38°54' W 076°26'36 6.3
2018-May-09 15:43N 39°23' W 075°58'4 0.8
2018-May-09 10:37N 39°22' W 075°53'0 0.0
2018-May-09 09:40N 39°22' W 075°53'0 0.0
2018-May-09 09:28N 39°22' W 075°53'0 0.0
2018-May-09 08:46N 39°22' W 075°53'0 0.0
2018-May-09 04:52N 39°22' W 075°53'0 0.0
2018-May-09 04:25N 39°22' W 075°53'  
2018-May-06 05:58N 39°22' W 075°53'0 0.0
2018-May-05 22:37N 39°22' W 075°53'0 0.0
2018-May-05 22:28N 39°22' W 075°53'  
Track history (hours):
 
Tides and Currents Weather Stations Pressure Air Temp Water Temp Dewpoint Dewpoint Depression Visibility Wind Speed Wind Dir Waves Ship Positions

Jupiter

Last reported at 2018-May-15 19:45 UTC. Time now 2018-May-24 21:21 UTC.
Position N 39°16' W 075°21'.
Warning: this ship's position is 9 days out of date.

Length 30 m.

Type: Sailing vessel. MMSI: 339399000.

Date/timePositionNaut miles runAvg speedWind from/ knotsBaromVisibWave heightAir tempDewpointWater temp
2018-May-15 19:45N 39°16' W 075°21'411.8
2018-May-15 19:26N 39°19' W 075°24'510.3
2018-May-15 19:00N 39°23' W 075°28'511.2
2018-May-15 18:30N 39°27' W 075°33'4 7.9
2018-May-15 18:00N 39°31' W 075°33'3 5.8
2018-May-15 17:29N 39°33' W 075°35'3 6.7
2018-May-15 17:00N 39°33' W 075°39'4 6.8
2018-May-15 16:28N 39°32' W 075°44'52 7.2
2018-May-15 09:19N 38°54' W 076°29'  
2018-May-10 19:53N 38°56' W 076°32'3 7.7
2018-May-10 19:30N 38°54' W 076°29'3 4.2
2018-May-10 18:44N 38°53' W 076°25'1 5.7
2018-May-10 18:30N 38°53' W 076°27'0 0.5
2018-May-10 18:00N 38°53' W 076°27'3 5.2
2018-May-10 17:30N 38°55' W 076°29'3 0.1
2018-May-09 22:11N 38°56' W 076°32'1 7.8
2018-May-09 22:00N 38°56' W 076°31'4 7.4
2018-May-09 21:26N 38°54' W 076°26'36 6.3
2018-May-09 15:43N 39°23' W 075°58'4 0.8
2018-May-09 10:37N 39°22' W 075°53'0 0.0
2018-May-09 09:40N 39°22' W 075°53'0 0.0
2018-May-09 09:28N 39°22' W 075°53'0 0.0
2018-May-09 08:46N 39°22' W 075°53'0 0.0
2018-May-09 04:52N 39°22' W 075°53'0 0.0
2018-May-09 04:25N 39°22' W 075°53'  
2018-May-06 05:58N 39°22' W 075°53'0 0.0
2018-May-05 22:37N 39°22' W 075°53'0 0.0
2018-May-05 22:28N 39°22' W 075°53'  

Dump ship's entire track history